Time;durP1;ratioP1;P1;durP2;ratioP2;P2;SDS_P1;SDS_P2;PMS_P1;PMS_P2;Temp;Humidity;BMP_temperature;BMP_pressure;BME280_temperature;BME280_humidity;BME280_pressure;Samples;Min_cycle;Max_cycle;Signal;HPM_P1;HPM_P2
2023/08/15 00:02:43;;;;;;;;;;;;;;;28.73;47.67;100968.19;6254415;23;19915;-79
2023/08/15 00:05:35;;;;;;;;;;;;;;;28.70;47.98;100975.41;6253329;23;19911;-79
2023/08/15 00:08:26;;;;;;;;;;;;;;;28.69;47.76;100973.06;6232267;23;20243;-79
2023/08/15 00:11:19;;;;;;;;;;;;;;;28.67;47.83;100975.47;6254644;23;19908;-79
2023/08/15 00:14:11;;;;;;;;;;;;;;;28.62;48.01;100979.59;6254717;23;19912;-78
2023/08/15 00:17:03;;;;;;;;;;;;;;;28.57;48.39;100987.69;6253359;23;19911;-79
2023/08/15 00:19:55;;;;;;;;;;;;;;;28.53;48.49;100984.97;6254359;23;19911;-79
2023/08/15 00:22:47;;;;;;;;;;;;;;;28.51;48.84;100993.00;6253429;23;19911;-78
2023/08/15 00:25:42;;;;;;;;;;;;;;;28.49;48.64;100989.88;6232532;23;19908;-78
2023/08/15 00:28:32;;;;;;;;;;;;;;;28.52;48.89;100994.59;6254298;23;19907;-78
2023/08/15 00:31:21;;;;;;;;;;;;;;;28.48;48.59;100985.47;6254462;23;19907;-78
2023/08/15 00:34:11;;;;;;;;;;;;;;;28.48;48.63;100991.09;6231931;23;19907;-79
2023/08/15 00:37:03;;;;;;;;;;;;;;;28.46;48.93;100985.13;6232370;23;19911;-79
2023/08/15 00:39:55;;;;;;;;;;;;;;;28.43;49.17;100988.78;6231819;23;19907;-78
2023/08/15 00:42:47;;;;;;;;;;;;;;;28.43;49.27;100986.78;6231737;23;19941;-78
2023/08/15 00:45:40;;;;;;;;;;;;;;;28.51;49.03;100979.00;6231981;23;19907;-78
2023/08/15 00:48:32;;;;;;;;;;;;;;;28.52;48.99;100980.59;6211158;23;19908;-79
2023/08/15 00:51:23;;;;;;;;;;;;;;;28.49;48.73;100973.88;6232194;23;19907;-78
2023/08/15 00:54:14;;;;;;;;;;;;;;;28.49;49.27;100976.66;6231662;23;19907;-78
2023/08/15 00:57:07;;;;;;;;;;;;;;;28.44;49.25;100970.78;6232567;23;19911;-78
2023/08/15 00:59:59;;;;;;;;;;;;;;;28.34;49.66;100977.38;6231167;23;20247;-78
2023/08/15 01:02:51;;;;;;;;;;;;;;;28.23;49.70;100974.81;6254175;23;19915;-77
2023/08/15 01:05:43;;;;;;;;;;;;;;;28.20;50.13;100980.44;6232131;23;19911;-78
2023/08/15 01:08:36;;;;;;;;;;;;;;;28.18;49.96;100974.50;6253135;23;19907;-78
2023/08/15 01:11:32;;;;;;;;;;;;;;;28.15;49.98;100976.13;6232512;23;19907;-79
2023/08/15 01:14:28;;;;;;;;;;;;;;;28.14;50.21;100971.00;6254142;23;19908;-79
2023/08/15 01:17:20;;;;;;;;;;;;;;;28.10;50.27;100971.00;6233772;23;19911;-78
2023/08/15 01:20:14;;;;;;;;;;;;;;;28.08;50.86;100976.25;6256411;23;19911;-78
2023/08/15 01:23:07;;;;;;;;;;;;;;;28.07;50.50;100972.69;6255476;23;19912;-78
2023/08/15 01:25:59;;;;;;;;;;;;;;;28.11;50.28;100969.00;6233836;23;19907;-78
2023/08/15 01:28:51;;;;;;;;;;;;;;;28.08;50.64;100977.06;6254233;23;19912;-78
2023/08/15 01:31:48;;;;;;;;;;;;;;;28.07;50.68;100971.88;6256184;23;20239;-79
2023/08/15 01:34:47;;;;;;;;;;;;;;;28.07;50.31;100963.50;6234366;23;19907;-78
2023/08/15 01:37:40;;;;;;;;;;;;;;;28.07;50.60;100958.69;6256241;23;19908;-78
2023/08/15 01:40:36;;;;;;;;;;;;;;;28.02;50.81;100961.19;6255095;23;19907;-78
2023/08/15 01:43:28;;;;;;;;;;;;;;;27.98;50.82;100961.28;6234031;23;19916;-78
2023/08/15 01:46:20;;;;;;;;;;;;;;;27.99;50.88;100957.22;6256021;23;19911;-78
2023/08/15 01:49:10;;;;;;;;;;;;;;;27.99;50.94;100953.66;6233073;23;20327;-78
2023/08/15 01:52:02;;;;;;;;;;;;;;;27.92;50.80;100951.00;6254833;23;20242;-78
2023/08/15 01:54:54;;;;;;;;;;;;;;;27.91;50.83;100944.63;6233710;23;19912;-79
2023/08/15 01:57:46;;;;;;;;;;;;;;;27.87;51.21;100949.50;6233183;23;19907;-78
2023/08/15 02:00:38;;;;;;;;;;;;;;;27.85;51.42;100948.31;6212394;23;20338;-78
2023/08/15 02:03:30;;;;;;;;;;;;;;;27.81;51.74;100948.41;6256379;23;20242;-79
2023/08/15 02:06:22;;;;;;;;;;;;;;;27.82;51.26;100936.00;6233768;23;19908;-78
2023/08/15 02:09:14;;;;;;;;;;;;;;;27.83;51.36;100934.81;6233320;23;19907;-79
2023/08/15 02:12:06;;;;;;;;;;;;;;;27.81;51.45;100940.00;6255997;23;19908;-78
2023/08/15 02:14:55;;;;;;;;;;;;;;;27.79;51.55;100941.66;6256040;23;20323;-78
2023/08/15 02:17:47;;;;;;;;;;;;;;;27.77;51.47;100938.50;6233593;23;19907;-78
2023/08/15 02:20:39;;;;;;;;;;;;;;;27.75;51.79;100933.34;6232575;23;19908;-78
2023/08/15 02:23:31;;;;;;;;;;;;;;;27.74;51.83;100936.56;6233390;23;20323;-79
2023/08/15 02:26:23;;;;;;;;;;;;;;;27.72;51.73;100934.19;6231466;23;19915;-79
2023/08/15 02:29:15;;;;;;;;;;;;;;;27.69;52.05;100940.63;6231464;23;19908;-78
2023/08/15 02:32:08;;;;;;;;;;;;;;;27.68;52.09;100938.28;6255747;23;19908;-79
2023/08/15 02:35:00;;;;;;;;;;;;;;;27.67;51.81;100936.69;6233847;23;19907;-79
2023/08/15 02:37:52;;;;;;;;;;;;;;;27.64;51.78;100927.94;6254158;23;19908;-78
2023/08/15 02:40:44;;;;;;;;;;;;;;;27.64;51.65;100927.16;6232553;23;20266;-78
2023/08/15 02:43:34;;;;;;;;;;;;;;;27.61;51.57;100928.81;6232635;23;19915;-79
2023/08/15 02:46:26;;;;;;;;;;;;;;;27.58;51.89;100926.09;6255544;23;19908;-78
2023/08/15 02:49:18;;;;;;;;;;;;;;;27.56;52.23;100920.13;6251781;23;19907;-79
2023/08/15 02:52:10;;;;;;;;;;;;;;;27.56;52.18;100920.91;6232566;23;19907;-79
2023/08/15 02:55:02;;;;;;;;;;;;;;;27.57;51.97;100916.13;6232766;23;19908;-78
2023/08/15 02:57:54;;;;;;;;;;;;;;;27.64;51.64;100913.19;6253840;23;19911;-78
2023/08/15 03:00:46;;;;;;;;;;;;;;;27.70;51.15;100908.69;6254404;23;19907;-78
2023/08/15 03:03:39;;;;;;;;;;;;;;;27.63;51.37;100908.81;6232107;23;20418;-78
2023/08/15 03:06:31;;;;;;;;;;;;;;;27.56;51.76;100908.94;6233138;23;19908;-78
2023/08/15 03:09:23;;;;;;;;;;;;;;;27.51;51.81;100903.84;6232454;23;19907;-78
2023/08/15 03:12:15;;;;;;;;;;;;;;;27.50;52.17;100899.47;6233246;23;19911;-78
2023/08/15 03:15:06;;;;;;;;;;;;;;;27.44;52.13;100901.94;6255691;23;19908;-78
2023/08/15 03:17:59;;;;;;;;;;;;;;;27.46;52.13;100893.13;6232112;23;19907;-78
2023/08/15 03:21:02;;;;;;;;;;;;;;;27.46;52.04;100893.91;6233341;23;19909;-78
2023/08/15 03:23:51;;;;;;;;;;;;;;;27.45;52.18;100891.53;6232508;23;19962;-79
2023/08/15 03:26:43;;;;;;;;;;;;;;;27.45;52.11;100888.75;6254231;23;20242;-78
2023/08/15 03:29:34;;;;;;;;;;;;;;;27.43;51.97;100897.56;6232650;23;19911;-79
2023/08/15 03:32:26;;;;;;;;;;;;;;;27.43;52.28;100894.75;6253653;23;19911;-78
2023/08/15 03:35:18;;;;;;;;;;;;;;;27.46;52.25;100890.34;6232337;23;19907;-78
2023/08/15 03:38:10;;;;;;;;;;;;;;;27.46;52.25;100895.94;6253338;23;19911;-78
2023/08/15 03:41:04;;;;;;;;;;;;;;;27.37;52.09;100895.69;6232084;23;19907;-78
2023/08/15 03:43:56;;;;;;;;;;;;;;;27.32;52.63;100891.38;6253807;23;20430;-78
2023/08/15 03:46:48;;;;;;;;;;;;;;;27.28;52.80;100887.84;6232347;23;20407;-78
2023/08/15 03:49:35;;;;;;;;;;;;;;;27.27;52.76;100896.66;6211582;23;19907;-78
2023/08/15 03:52:27;;;;;;;;;;;;;;;27.23;52.68;100891.91;6254937;23;20238;-79
2023/08/15 03:55:17;;;;;;;;;;;;;;;27.21;53.26;100899.16;6232472;23;19907;-78
2023/08/15 03:58:09;;;;;;;;;;;;;;;27.16;53.15;100900.44;6254435;23;19908;-79
2023/08/15 04:01:01;;;;;;;;;;;;;;;27.15;53.25;100901.63;6232661;23;19911;-78
2023/08/15 04:03:56;;;;;;;;;;;;;;;27.14;53.48;100908.44;6233152;23;19911;-79
2023/08/15 04:06:48;;;;;;;;;;;;;;;27.14;53.53;100907.63;6255341;23;19907;-78
2023/08/15 04:09:41;;;;;;;;;;;;;;;27.13;53.13;100908.84;6232636;23;19908;-78
2023/08/15 04:12:33;;;;;;;;;;;;;;;27.10;53.35;100924.44;6253814;23;19907;-79
2023/08/15 04:15:25;;;;;;;;;;;;;;;27.10;53.65;100920.88;6233107;23;19911;-78
2023/08/15 04:18:16;;;;;;;;;;;;;;;27.24;52.86;100921.41;6232482;23;20323;-78
2023/08/15 04:21:08;;;;;;;;;;;;;;;27.27;52.60;100933.75;6253619;23;19908;-78
2023/08/15 04:24:00;;;;;;;;;;;;;;;27.26;52.83;100940.56;6255122;23;20327;-79
2023/08/15 04:26:52;;;;;;;;;;;;;;;27.22;52.65;100939.84;6254711;23;20251;-78
2023/08/15 04:29:44;;;;;;;;;;;;;;;27.18;52.72;100945.44;6250670;23;19907;-78
2023/08/15 04:32:35;;;;;;;;;;;;;;;27.16;53.26;100941.53;6231771;23;20319;-78
2023/08/15 04:35:25;;;;;;;;;;;;;;;27.11;53.43;100953.97;6254694;23;19911;-78
2023/08/15 04:38:15;;;;;;;;;;;;;;;27.10;53.35;100944.00;6210433;23;20338;-78
2023/08/15 04:41:07;;;;;;;;;;;;;;;27.10;53.24;100943.19;6253029;23;19912;-78
2023/08/15 04:43:59;;;;;;;;;;;;;;;27.08;53.56;100938.03;6253647;23;19911;-78
2023/08/15 04:46:51;;;;;;;;;;;;;;;27.03;53.67;100949.69;6232797;23;19907;-77
2023/08/15 04:49:43;;;;;;;;;;;;;;;26.99;53.78;100948.94;6252973;23;19915;-79
2023/08/15 04:52:34;;;;;;;;;;;;;;;26.99;53.88;100951.75;6254087;23;19911;-79
2023/08/15 04:55:24;;;;;;;;;;;;;;;26.98;54.54;100955.72;6254634;23;19911;-78
2023/08/15 04:58:16;;;;;;;;;;;;;;;26.97;54.26;100956.94;6232092;23;19908;-78
2023/08/15 05:01:08;;;;;;;;;;;;;;;26.94;54.69;100960.59;6232461;23;19911;-78
2023/08/15 05:04:00;;;;;;;;;;;;;;;26.93;54.32;100964.59;6231681;23;20266;-78
2023/08/15 05:06:52;;;;;;;;;;;;;;;26.92;55.25;100960.22;6231755;23;20242;-78
2023/08/15 05:09:44;;;;;;;;;;;;;;;26.91;55.26;100963.44;6231601;23;19911;-78
2023/08/15 05:12:36;;;;;;;;;;;;;;;26.92;55.10;100957.41;6231775;23;19912;-78
2023/08/15 05:15:28;;;;;;;;;;;;;;;26.90;54.98;100964.66;6254919;23;19911;-78
2023/08/15 05:18:20;;;;;;;;;;;;;;;26.89;55.81;100963.06;6231519;23;19908;-78
2023/08/15 05:21:12;;;;;;;;;;;;;;;26.85;55.74;100954.72;6254308;23;20322;-78
2023/08/15 05:24:05;;;;;;;;;;;;;;;26.87;55.75;100968.28;6232072;23;20334;-78
2023/08/15 05:26:57;;;;;;;;;;;;;;;26.83;55.49;100966.28;6253212;23;19907;-79
2023/08/15 05:29:49;;;;;;;;;;;;;;;26.78;55.70;100966.75;6231618;23;19911;-79
2023/08/15 05:32:41;;;;;;;;;;;;;;;26.75;55.48;100970.41;6253264;23;19907;-79
2023/08/15 05:35:33;;;;;;;;;;;;;;;26.72;55.70;100978.81;6231835;23;19908;-78
2023/08/15 05:38:25;;;;;;;;;;;;;;;26.73;55.99;100981.19;6252563;23;19907;-78
2023/08/15 05:41:17;;;;;;;;;;;;;;;26.76;56.81;100968.41;6231482;23;19907;-79
2023/08/15 05:44:09;;;;;;;;;;;;;;;26.76;56.48;100966.41;6252970;23;20339;-78
2023/08/15 05:47:01;;;;;;;;;;;;;;;26.75;56.17;100972.41;6232012;23;19907;-78
2023/08/15 05:49:53;;;;;;;;;;;;;;;26.77;55.89;100967.97;6254209;23;19907;-78
2023/08/15 05:52:45;;;;;;;;;;;;;;;26.76;56.16;100971.19;6254432;23;19916;-79
2023/08/15 05:55:37;;;;;;;;;;;;;;;26.73;55.65;100975.59;6253510;23;20314;-79
2023/08/15 05:58:29;;;;;;;;;;;;;;;26.75;56.03;100977.97;6253563;23;19907;-79
2023/08/15 06:01:21;;;;;;;;;;;;;;;26.77;55.84;100975.53;6233442;23;19908;-78
2023/08/15 06:04:13;;;;;;;;;;;;;;;26.78;55.89;100969.56;6256060;23;19911;-78
2023/08/15 06:07:05;;;;;;;;;;;;;;;26.81;55.94;100981.88;6256319;23;19915;-78
2023/08/15 06:09:56;;;;;;;;;;;;;;;26.82;55.72;100970.28;6254324;23;19907;-79
2023/08/15 06:12:48;;;;;;;;;;;;;;;26.85;56.08;100979.84;6256033;23;20255;-80
2023/08/15 06:15:40;;;;;;;;;;;;;;;26.89;56.06;100979.81;6254406;23;19907;-79
2023/08/15 06:18:32;;;;;;;;;;;;;;;26.90;55.92;100982.19;6251008;23;19907;-78
2023/08/15 06:21:24;;;;;;;;;;;;;;;26.92;55.42;100981.78;6254400;23;19920;-79
2023/08/15 06:24:17;;;;;;;;;;;;;;;26.94;55.47;100985.72;6254847;23;19915;-78
2023/08/15 06:27:09;;;;;;;;;;;;;;;27.03;55.72;100985.19;6233091;23;19907;-79
2023/08/15 06:30:01;;;;;;;;;;;;;;;27.04;55.15;100990.34;6231497;23;19907;-79
2023/08/15 06:32:53;;;;;;;;;;;;;;;27.07;55.51;100989.50;6232928;23;19908;-79
2023/08/15 06:35:44;;;;;;;;;;;;;;;27.09;55.66;100989.09;6233273;23;20335;-78
2023/08/15 06:38:36;;;;;;;;;;;;;;;27.08;54.84;100988.28;6255554;23;19907;-79
2023/08/15 06:41:28;;;;;;;;;;;;;;;27.10;54.99;100987.88;6233530;23;19954;-79
2023/08/15 06:44:21;;;;;;;;;;;;;;;27.13;55.06;100992.59;6232742;23;19915;-79
2023/08/15 06:47:12;;;;;;;;;;;;;;;27.15;54.98;100991.00;6254191;23;19908;-79
2023/08/15 06:50:04;;;;;;;;;;;;;;;27.19;54.59;100988.13;6255104;23;19912;-79
2023/08/15 06:52:56;;;;;;;;;;;;;;;27.19;54.75;100988.94;6255551;23;19911;-79
2023/08/15 06:55:49;;;;;;;;;;;;;;;27.24;54.80;100988.44;6255575;23;19907;-78
2023/08/15 06:58:41;;;;;;;;;;;;;;;27.30;54.96;100990.75;6255643;23;19912;-78
2023/08/15 07:01:33;;;;;;;;;;;;;;;27.32;54.53;100982.75;6254238;23;19907;-78
2023/08/15 07:04:25;;;;;;;;;;;;;;;27.33;54.68;100989.94;6254327;23;19915;-78
2023/08/15 07:07:17;;;;;;;;;;;;;;;27.34;53.99;100991.50;6255054;23;19907;-78
2023/08/15 07:10:09;;;;;;;;;;;;;;;27.39;53.58;100991.00;6233446;23;19907;-79
2023/08/15 07:13:02;;;;;;;;;;;;;;;27.41;53.62;100991.38;6237306;23;19911;-78
2023/08/15 07:16:00;;;;;;;;;;;;;;;27.43;53.22;100988.97;6255318;23;19911;-78
2023/08/15 07:18:52;;;;;;;;;;;;;;;27.45;53.33;100994.91;6253425;23;19907;-79
2023/08/15 07:21:44;;;;;;;;;;;;;;;27.49;53.46;101002.06;6232510;23;20347;-79
2023/08/15 07:24:36;;;;;;;;;;;;;;;27.53;53.11;101002.00;6234897;23;19916;-81
2023/08/15 07:27:26;;;;;;;;;;;;;;;27.58;52.52;101005.09;6256379;23;20319;-79
2023/08/15 07:30:15;;;;;;;;;;;;;;;27.65;52.31;100995.81;6254636;23;19911;-79
2023/08/15 07:33:07;;;;;;;;;;;;;;;27.71;51.86;101001.69;6232866;23;19907;-80
2023/08/15 07:36:00;;;;;;;;;;;;;;;27.77;51.69;101003.59;6274621;23;19907;-80
2023/08/15 07:38:49;;;;;;;;;;;;;;;27.82;51.45;101003.09;6271310;23;19911;-81
2023/08/15 07:41:41;;;;;;;;;;;;;;;27.87;51.34;100999.81;6257164;23;20323;-81
2023/08/15 07:44:31;;;;;;;;;;;;;;;27.92;51.12;100999.31;6234848;23;19911;-81
2023/08/15 07:47:22;;;;;;;;;;;;;;;27.96;51.13;100991.66;6236059;23;19911;-79
2023/08/15 07:50:21;;;;;;;;;;;;;;;28.02;51.10;100989.94;6257180;23;20331;-80
2023/08/15 07:53:13;;;;;;;;;;;;;;;28.09;51.10;100980.63;6257543;23;20326;-82
2023/08/15 07:56:03;;;;;;;;;;;;;;;28.17;50.79;100981.31;6255996;23;19912;-82
2023/08/15 07:58:55;;;;;;;;;;;;;;;28.21;50.96;100976.44;6255143;23;20247;-80
2023/08/15 08:01:47;;;;;;;;;;;;;;;28.25;51.06;100971.56;6256470;23;20243;-82
2023/08/15 08:04:40;;;;;;;;;;;;;;;28.32;50.72;100971.41;6257934;23;19915;-82
2023/08/15 08:07:32;;;;;;;;;;;;;;;28.37;50.92;100979.31;6257381;23;19907;-83
2023/08/15 08:10:24;;;;;;;;;;;;;;;28.42;50.74;100982.41;6255579;23;19907;-82
2023/08/15 08:13:16;;;;;;;;;;;;;;;28.51;49.75;100976.22;6234642;23;19907;-82
2023/08/15 08:16:08;;;;;;;;;;;;;;;28.56;49.85;100981.31;6233956;23;19912;-81
2023/08/15 08:19:00;;;;;;;;;;;;;;;28.63;49.59;100981.16;6233450;23;19907;-80
2023/08/15 08:21:53;;;;;;;;;;;;;;;28.70;48.40;100981.00;6254708;23;19904;-80
2023/08/15 08:24:45;;;;;;;;;;;;;;;28.77;48.69;100982.88;6254349;23;19911;-80
2023/08/15 08:27:34;;;;;;;;;;;;;;;28.81;48.73;100975.97;6255729;23;19907;-80
2023/08/15 08:30:26;;;;;;;;;;;;;;;28.86;48.66;100975.47;6254332;23;20318;-79
2023/08/15 08:33:18;;;;;;;;;;;;;;;28.92;48.33;100970.94;6253867;23;19912;-80
2023/08/15 08:36:08;;;;;;;;;;;;;;;28.97;48.71;100978.03;6254393;23;19911;-80
2023/08/15 08:38:57;;;;;;;;;;;;;;;29.02;48.15;100976.72;6253482;23;19934;-79
2023/08/15 08:41:49;;;;;;;;;;;;;;;29.06;48.36;100971.81;6255225;23;19907;-79
2023/08/15 08:44:41;;;;;;;;;;;;;;;29.11;47.94;100976.91;6255393;23;19912;-80
2023/08/15 08:47:33;;;;;;;;;;;;;;;29.15;48.08;100963.63;6255158;23;19907;-80
2023/08/15 08:50:20;;;;;;;;;;;;;;;29.18;48.30;100957.13;6253920;23;19907;-80
2023/08/15 08:53:07;;;;;;;;;;;;;;;29.24;48.46;100961.00;6255003;23;19912;-79
2023/08/15 08:55:59;;;;;;;;;;;;;;;29.27;48.03;100960.13;6232572;23;19912;-79
2023/08/15 08:58:50;;;;;;;;;;;;;;;29.32;47.91;100962.41;6254568;23;19908;-80
2023/08/15 09:01:40;;;;;;;;;;;;;;;29.37;48.21;100961.91;6231941;23;19903;-79
2023/08/15 09:04:32;;;;;;;;;;;;;;;29.41;47.74;100961.81;6254794;23;20247;-80
2023/08/15 09:07:24;;;;;;;;;;;;;;;29.45;47.93;100952.09;6254739;23;19911;-79
2023/08/15 09:10:14;;;;;;;;;;;;;;;29.49;47.34;100958.41;6232060;23;19907;-80
2023/08/15 09:13:06;;;;;;;;;;;;;;;29.55;47.30;100953.84;6232756;23;19907;-80
2023/08/15 09:15:58;;;;;;;;;;;;;;;29.61;47.23;100960.47;6254487;23;19915;-79
2023/08/15 09:18:49;;;;;;;;;;;;;;;29.68;47.02;100953.91;6252873;23;19908;-80
2023/08/15 09:21:41;;;;;;;;;;;;;;;29.73;46.77;100954.16;6254479;23;19907;-79
2023/08/15 09:24:30;;;;;;;;;;;;;;;29.83;46.19;100946.69;6253191;23;19919;-80
2023/08/15 09:27:22;;;;;;;;;;;;;;;29.94;45.27;100936.00;6232425;23;19907;-79
2023/08/15 09:30:17;;;;;;;;;;;;;;;30.01;45.49;100932.22;6232078;23;19932;-80
2023/08/15 09:33:09;;;;;;;;;;;;;;;30.07;44.69;100931.22;6232128;23;19907;-80
2023/08/15 09:35:56;;;;;;;;;;;;;;;30.14;44.34;100933.03;6233379;23;19911;-79
2023/08/15 09:38:48;;;;;;;;;;;;;;;30.21;44.24;100930.03;6255276;23;19907;-79
2023/08/15 09:41:42;;;;;;;;;;;;;;;30.36;43.89;100922.78;6255058;23;19911;-79
2023/08/15 09:44:34;;;;;;;;;;;;;;;30.40;43.77;100928.28;6256164;23;19911;-79
2023/08/15 09:47:27;;;;;;;;;;;;;;;30.44;43.65;100924.13;6254727;23;19916;-79
2023/08/15 09:50:16;;;;;;;;;;;;;;;30.49;43.56;100922.81;6255846;23;19907;-79
2023/08/15 09:53:06;;;;;;;;;;;;;;;30.49;44.35;100920.78;6256318;23;19907;-80
2023/08/15 09:55:58;;;;;;;;;;;;;;;30.50;44.55;100919.56;6233718;23;19907;-79
2023/08/15 09:58:50;;;;;;;;;;;;;;;30.52;44.45;100919.91;6254612;23;19911;-79
2023/08/15 10:01:43;;;;;;;;;;;;;;;30.53;44.54;100918.66;6255657;23;19903;-79
2023/08/15 10:04:33;;;;;;;;;;;;;;;30.56;44.00;100917.78;6233337;23;19916;-79
2023/08/15 10:07:27;;;;;;;;;;;;;;;30.62;44.19;100912.41;6233730;23;19911;-79
2023/08/15 10:10:19;;;;;;;;;;;;;;;30.62;44.35;100914.41;6254279;23;19907;-79
2023/08/15 10:13:11;;;;;;;;;;;;;;;30.67;43.84;100916.66;6255589;23;20239;-79
2023/08/15 10:16:03;;;;;;;;;;;;;;;30.75;43.45;100910.38;6255774;23;19907;-79
2023/08/15 10:18:56;;;;;;;;;;;;;;;30.79;43.57;100907.44;6255314;23;19907;-79
2023/08/15 10:21:49;;;;;;;;;;;;;;;30.82;43.45;100904.53;6254462;23;19908;-79
2023/08/15 10:24:41;;;;;;;;;;;;;;;30.86;43.02;100893.19;6255378;23;19911;-79
2023/08/15 10:27:33;;;;;;;;;;;;;;;30.92;43.31;100897.00;6255438;23;20247;-79
2023/08/15 10:30:30;;;;;;;;;;;;;;;30.96;42.73;100886.44;6233322;23;19912;-79
2023/08/15 10:33:22;;;;;;;;;;;;;;;31.03;42.45;100891.84;6233379;23;19911;-79
2023/08/15 10:36:14;;;;;;;;;;;;;;;31.09;42.11;100886.47;6255567;23;19908;-79
2023/08/15 10:39:09;;;;;;;;;;;;;;;31.09;42.63;100881.59;6233159;23;20334;-79
2023/08/15 10:42:01;;;;;;;;;;;;;;;31.13;41.83;100882.28;6255340;23;19903;-79
2023/08/15 10:45:00;;;;;;;;;;;;;;;31.33;38.40;100891.25;6255310;23;19911;-79
2023/08/15 10:47:52;;;;;;;;;;;;;;;31.41;39.70;100889.75;6254179;23;19911;-78
2023/08/15 10:50:47;;;;;;;;;;;;;;;31.47;39.92;100886.34;6233460;23;19907;-80
2023/08/15 10:53:39;;;;;;;;;;;;;;;31.50;40.44;100883.41;6240250;23;19907;-80
2023/08/15 10:56:32;;;;;;;;;;;;;;;31.62;39.87;100885.44;6260622;23;20318;-80
2023/08/15 10:59:24;;;;;;;;;;;;;;;31.68;37.82;100889.22;6257100;23;19907;-80
2023/08/15 11:02:18;;;;;;;;;;;;;;;31.79;38.79;100880.41;6257153;23;19911;-80
2023/08/15 11:05:10;;;;;;;;;;;;;;;31.89;38.44;100876.44;6256558;23;19911;-80
2023/08/15 11:08:19;;;;;;;;;;;;;;;31.94;38.32;100872.22;6256021;23;19907;-80
2023/08/15 11:11:09;;;;;;;;;;;;;;;31.93;39.46;100870.66;6234720;23;19907;-80
2023/08/15 11:14:01;;;;;;;;;;;;;;;31.87;39.89;100870.47;6256704;23;19911;-80
2023/08/15 11:16:53;;;;;;;;;;;;;;;31.89;40.03;100875.63;6257025;23;20251;-79
2023/08/15 11:19:45;;;;;;;;;;;;;;;31.89;40.44;100867.97;6254531;23;19907;-79
2023/08/15 11:22:37;;;;;;;;;;;;;;;31.87;40.44;100864.84;6256806;23;19908;-80
2023/08/15 11:25:27;;;;;;;;;;;;;;;31.87;40.47;100864.84;6256615;23;19911;-81
2023/08/15 11:28:17;;;;;;;;;;;;;;;31.85;40.17;100856.06;6256370;23;19907;-80
2023/08/15 11:31:13;;;;;;;;;;;;;;;31.91;40.21;100865.47;6234032;23;19911;-80
2023/08/15 11:34:05;;;;;;;;;;;;;;;32.00;39.68;100859.91;6254790;23;19907;-80
2023/08/15 11:36:57;;;;;;;;;;;;;;;32.00;39.71;100859.91;6234025;23;20247;-81
2023/08/15 11:39:56;;;;;;;;;;;;;;;32.11;39.49;100853.91;6233401;23;19911;-79
2023/08/15 11:42:49;;;;;;;;;;;;;;;32.20;39.06;100851.16;6256231;23;19907;-81
2023/08/15 11:45:43;;;;;;;;;;;;;;;32.29;38.57;100853.25;6256185;23;19911;-80
2023/08/15 11:48:35;;;;;;;;;;;;;;;32.36;38.58;100841.69;6255562;23;19908;-80
2023/08/15 11:51:27;;;;;;;;;;;;;;;32.45;38.05;100845.34;6255810;23;19927;-80
2023/08/15 11:54:19;;;;;;;;;;;;;;;32.53;37.76;100843.03;6254445;23;19911;-80
2023/08/15 11:57:10;;;;;;;;;;;;;;;32.48;38.48;100846.44;6233389;23;19908;-80
2023/08/15 11:59:57;;;;;;;;;;;;;;;32.44;38.87;100849.41;6232387;23;19911;-80
2023/08/15 12:02:47;;;;;;;;;;;;;;;32.37;38.96;100846.84;6233120;23;19907;-80
2023/08/15 12:05:38;;;;;;;;;;;;;;;32.29;38.96;100842.78;6254552;23;19911;-79
2023/08/15 12:08:30;;;;;;;;;;;;;;;32.29;39.32;100850.44;6253853;23;19907;-80
2023/08/15 12:11:23;;;;;;;;;;;;;;;32.34;39.11;100850.63;6255658;23;20246;-81
2023/08/15 12:14:24;;;;;;;;;;;;;;;32.27;39.37;100850.88;6232985;23;19911;-79
2023/08/15 12:17:16;;;;;;;;;;;;;;;32.22;39.54;100841.00;6254114;23;19907;-80
2023/08/15 12:20:16;;;;;;;;;;;;;;;32.22;39.54;100849.44;6253413;23;19907;-80
2023/08/15 12:23:08;;;;;;;;;;;;;;;32.26;38.20;100838.03;6232896;23;19907;-80
2023/08/15 12:25:59;;;;;;;;;;;;;;;32.35;38.98;100824.03;6255330;23;19911;-80
2023/08/15 12:28:51;;;;;;;;;;;;;;;32.42;38.64;100823.72;6254629;23;19908;-80
2023/08/15 12:31:42;;;;;;;;;;;;;;;32.38;39.37;100827.94;6255001;23;20331;-80
2023/08/15 12:34:31;;;;;;;;;;;;;;;32.32;39.52;100830.56;6255069;23;19907;-80
2023/08/15 12:37:21;;;;;;;;;;;;;;;32.30;39.29;100827.44;6254822;23;19908;-80
2023/08/15 12:40:13;;;;;;;;;;;;;;;32.24;39.44;100827.25;6253067;23;19907;-80
2023/08/15 12:43:05;;;;;;;;;;;;;;;32.28;39.56;100817.88;6232633;23;19911;-79
2023/08/15 12:45:57;;;;;;;;;;;;;;;32.33;39.17;100818.06;6253477;23;20342;-79
2023/08/15 12:48:49;;;;;;;;;;;;;;;32.43;39.39;100807.63;6253051;23;19908;-80
2023/08/15 12:51:41;;;;;;;;;;;;;;;32.51;39.12;100814.56;6232430;23;19912;-79
2023/08/15 12:54:33;;;;;;;;;;;;;;;32.65;38.54;100806.34;6253605;23;20250;-79
2023/08/15 12:57:23;;;;;;;;;;;;;;;32.58;38.71;100798.13;6231931;23;20331;-80
2023/08/15 13:00:15;;;;;;;;;;;;;;;32.57;38.63;100799.38;6254418;23;19908;-79
2023/08/15 13:03:04;;;;;;;;;;;;;;;32.64;38.61;100801.94;6254973;23;20341;-79
2023/08/15 13:05:56;;;;;;;;;;;;;;;32.74;37.83;100802.75;6252888;23;20337;-79
2023/08/15 13:08:48;;;;;;;;;;;;;;;32.84;37.60;100781.81;6231701;23;19907;-79
2023/08/15 13:11:38;;;;;;;;;;;;;;;32.89;38.14;100789.63;6233180;23;19907;-79
2023/08/15 13:14:30;;;;;;;;;;;;;;;32.89;38.14;100783.22;6233974;23;19907;-79
2023/08/15 13:17:22;;;;;;;;;;;;;;;32.81;38.06;100777.09;6234127;23;19907;-79
2023/08/15 13:20:14;;;;;;;;;;;;;;;32.74;38.28;100783.03;6255838;23;20250;-78
2023/08/15 13:23:06;;;;;;;;;;;;;;;32.79;38.55;100768.34;6233952;23;19911;-79
2023/08/15 13:25:58;;;;;;;;;;;;;;;32.88;37.99;100759.09;6254858;23;20327;-80
2023/08/15 13:28:51;;;;;;;;;;;;;;;32.98;37.56;100767.09;6224029;23;20262;-80
2023/08/15 13:31:44;;;;;;;;;;;;;;;33.02;37.92;100767.72;6233965;23;19903;-79
2023/08/15 13:34:36;;;;;;;;;;;;;;;32.85;38.03;100760.84;6256201;23;19908;-79
2023/08/15 13:37:28;;;;;;;;;;;;;;;32.91;37.91;100758.97;6233859;23;19915;-79
2023/08/15 13:40:20;;;;;;;;;;;;;;;32.93;37.90;100756.44;6255971;23;19908;-79
2023/08/15 13:43:12;;;;;;;;;;;;;;;33.05;37.53;100758.34;6233922;23;19911;-79
2023/08/15 13:46:07;;;;;;;;;;;;;;;33.18;35.96;100748.97;6256188;23;19911;-79
2023/08/15 13:48:59;;;;;;;;;;;;;;;33.27;36.53;100748.97;6255643;23;20323;-80
2023/08/15 13:51:48;;;;;;;;;;;;;;;33.21;37.27;100751.66;6254710;23;20243;-80
2023/08/15 13:54:40;;;;;;;;;;;;;;;33.18;37.05;100748.97;6233847;23;20323;-80
2023/08/15 13:57:32;;;;;;;;;;;;;;;33.20;37.55;100735.97;6233736;23;19911;-79
2023/08/15 14:00:25;;;;;;;;;;;;;;;33.19;37.05;100739.25;6233740;23;19907;-80
2023/08/15 14:03:12;;;;;;;;;;;;;;;33.04;37.44;100739.88;6255914;23;19907;-79
2023/08/15 14:06:01;;;;;;;;;;;;;;;33.00;37.93;100736.41;6254839;23;19911;-79
2023/08/15 14:08:53;;;;;;;;;;;;;;;32.96;37.67;100744.25;6255623;23;19911;-79
2023/08/15 14:11:45;;;;;;;;;;;;;;;33.00;37.27;100736.41;6255823;23;19903;-79
2023/08/15 14:14:37;;;;;;;;;;;;;;;33.08;37.22;100734.06;6236470;23;19915;-80
2023/08/15 14:17:29;;;;;;;;;;;;;;;32.95;37.73;100745.50;6263071;23;20350;-80
2023/08/15 14:20:19;;;;;;;;;;;;;;;32.90;37.76;100740.50;6236444;23;19907;-80
2023/08/15 14:23:11;;;;;;;;;;;;;;;32.83;38.05;100729.50;6257822;23;19907;-80
2023/08/15 14:26:03;;;;;;;;;;;;;;;32.86;38.05;100725.00;6257489;23;19912;-80
2023/08/15 14:28:54;;;;;;;;;;;;;;;32.85;38.12;100732.66;6255577;23;19907;-80
2023/08/15 14:31:46;;;;;;;;;;;;;;;32.87;38.51;100724.50;6256346;23;19903;-80
2023/08/15 14:34:38;;;;;;;;;;;;;;;32.92;38.32;100726.69;6256205;23;19912;-80
2023/08/15 14:37:30;;;;;;;;;;;;;;;33.06;37.18;100720.47;6256318;23;19908;-81
2023/08/15 14:40:22;;;;;;;;;;;;;;;33.18;36.69;100724.38;6257091;23;19907;-81
2023/08/15 14:43:14;;;;;;;;;;;;;;;33.30;34.91;100722.66;6235040;23;19911;-80